sensor_id;sensor_type;location;lat;lon;timestamp;pressure;altitude;pressure_sealevel;temperature;humidity
10946;BME280;5525;42.648;23.368;2022-08-03T00:00:52;94674.75;;;18.39;99.19
10946;BME280;5525;42.648;23.368;2022-08-03T00:03:19;94685.34;;;18.44;99.81
10946;BME280;5525;42.648;23.368;2022-08-03T00:05:46;94662.50;;;18.29;99.81
10946;BME280;5525;42.648;23.368;2022-08-03T00:08:13;94677.19;;;18.48;100.00
10946;BME280;5525;42.648;23.368;2022-08-03T00:10:40;94674.69;;;18.35;100.00
10946;BME280;5525;42.648;23.368;2022-08-03T00:13:07;94673.06;;;18.31;100.00
10946;BME280;5525;42.648;23.368;2022-08-03T00:15:35;94678.19;;;18.36;100.00
10946;BME280;5525;42.648;23.368;2022-08-03T00:18:02;94662.34;;;18.19;100.00
10946;BME280;5525;42.648;23.368;2022-08-03T00:20:29;94676.56;;;18.28;100.00
10946;BME280;5525;42.648;23.368;2022-08-03T00:22:56;94669.84;;;18.22;100.00
10946;BME280;5525;42.648;23.368;2022-08-03T00:25:23;94661.63;;;17.92;100.00
10946;BME280;5525;42.648;23.368;2022-08-03T00:27:49;94659.22;;;17.87;100.00
10946;BME280;5525;42.648;23.368;2022-08-03T00:30:16;94678.22;;;18.06;100.00
10946;BME280;5525;42.648;23.368;2022-08-03T00:32:45;94668.84;;;17.78;100.00
10946;BME280;5525;42.648;23.368;2022-08-03T00:35:11;94689.28;;;17.87;100.00
10946;BME280;5525;42.648;23.368;2022-08-03T00:37:38;94680.38;;;17.94;100.00
10946;BME280;5525;42.648;23.368;2022-08-03T00:40:06;94683.28;;;17.78;100.00
10946;BME280;5525;42.648;23.368;2022-08-03T00:42:33;94656.13;;;17.89;100.00
10946;BME280;5525;42.648;23.368;2022-08-03T00:45:00;94664.75;;;17.91;100.00
10946;BME280;5525;42.648;23.368;2022-08-03T00:47:27;94678.34;;;17.87;100.00
10946;BME280;5525;42.648;23.368;2022-08-03T00:49:55;94612.31;;;17.52;100.00
10946;BME280;5525;42.648;23.368;2022-08-03T00:52:22;94637.44;;;17.65;100.00
10946;BME280;5525;42.648;23.368;2022-08-03T00:54:49;94652.41;;;17.74;100.00
10946;BME280;5525;42.648;23.368;2022-08-03T00:57:15;94674.94;;;17.68;100.00
10946;BME280;5525;42.648;23.368;2022-08-03T00:59:42;94682.66;;;17.62;100.00
10946;BME280;5525;42.648;23.368;2022-08-03T01:02:09;94647.84;;;17.56;100.00
10946;BME280;5525;42.648;23.368;2022-08-03T01:04:36;94605.34;;;17.32;100.00
10946;BME280;5525;42.648;23.368;2022-08-03T01:07:13;94617.34;;;17.50;100.00
10946;BME280;5525;42.648;23.368;2022-08-03T01:09:47;94662.47;;;17.70;100.00
10946;BME280;5525;42.648;23.368;2022-08-03T01:12:24;94649.53;;;17.41;100.00
10946;BME280;5525;42.648;23.368;2022-08-03T01:15:01;94658.41;;;17.57;100.00
10946;BME280;5525;42.648;23.368;2022-08-03T01:17:33;94664.03;;;17.68;100.00
10946;BME280;5525;42.648;23.368;2022-08-03T01:20:06;94670.53;;;17.37;100.00
10946;BME280;5525;42.648;23.368;2022-08-03T01:22:51;94620.38;;;16.97;100.00
10946;BME280;5525;42.648;23.368;2022-08-03T01:25:31;94585.84;;;16.59;100.00
10946;BME280;5525;42.648;23.368;2022-08-03T01:28:13;94662.13;;;17.23;100.00
10946;BME280;5525;42.648;23.368;2022-08-03T01:30:47;94656.84;;;17.34;100.00
10946;BME280;5525;42.648;23.368;2022-08-03T01:33:21;94656.66;;;17.46;100.00
10946;BME280;5525;42.648;23.368;2022-08-03T01:35:53;94623.63;;;17.28;100.00
10946;BME280;5525;42.648;23.368;2022-08-03T01:38:23;94655.72;;;17.38;100.00
10946;BME280;5525;42.648;23.368;2022-08-03T01:40:53;94648.78;;;17.18;100.00
10946;BME280;5525;42.648;23.368;2022-08-03T01:43:24;94670.78;;;17.29;100.00
10946;BME280;5525;42.648;23.368;2022-08-03T01:45:55;94669.91;;;16.99;100.00
10946;BME280;5525;42.648;23.368;2022-08-03T01:48:23;94641.03;;;16.98;100.00
10946;BME280;5525;42.648;23.368;2022-08-03T01:50:54;94659.81;;;17.03;100.00
10946;BME280;5525;42.648;23.368;2022-08-03T01:53:22;94665.78;;;17.08;100.00
10946;BME280;5525;42.648;23.368;2022-08-03T01:55:53;94663.09;;;17.12;100.00
10946;BME280;5525;42.648;23.368;2022-08-03T01:58:23;94590.22;;;16.63;100.00
10946;BME280;5525;42.648;23.368;2022-08-03T02:00:51;94670.13;;;17.13;100.00
10946;BME280;5525;42.648;23.368;2022-08-03T02:03:22;94588.25;;;16.64;100.00
10946;BME280;5525;42.648;23.368;2022-08-03T02:05:51;94674.34;;;17.07;100.00
10946;BME280;5525;42.648;23.368;2022-08-03T02:08:19;94666.06;;;17.03;100.00
10946;BME280;5525;42.648;23.368;2022-08-03T02:10:49;94664.97;;;17.08;100.00
10946;BME280;5525;42.648;23.368;2022-08-03T02:13:18;94660.19;;;17.01;100.00
10946;BME280;5525;42.648;23.368;2022-08-03T02:15:47;94632.31;;;16.88;100.00
10946;BME280;5525;42.648;23.368;2022-08-03T02:18:15;94609.50;;;16.77;100.00
10946;BME280;5525;42.648;23.368;2022-08-03T02:20:43;94647.34;;;17.02;100.00
10946;BME280;5525;42.648;23.368;2022-08-03T02:23:10;94641.09;;;17.01;100.00
10946;BME280;5525;42.648;23.368;2022-08-03T02:25:41;94585.41;;;16.57;100.00
10946;BME280;5525;42.648;23.368;2022-08-03T02:28:11;94643.81;;;17.01;100.00
10946;BME280;5525;42.648;23.368;2022-08-03T02:30:42;94632.84;;;16.98;100.00
10946;BME280;5525;42.648;23.368;2022-08-03T02:33:24;94662.84;;;17.20;100.00
10946;BME280;5525;42.648;23.368;2022-08-03T02:35:55;94625.13;;;16.80;100.00
10946;BME280;5525;42.648;23.368;2022-08-03T02:38:27;94662.00;;;16.94;100.00
10946;BME280;5525;42.648;23.368;2022-08-03T02:40:57;94669.47;;;16.97;100.00
10946;BME280;5525;42.648;23.368;2022-08-03T02:43:24;94654.25;;;16.96;100.00
10946;BME280;5525;42.648;23.368;2022-08-03T02:45:53;94656.38;;;16.83;100.00
10946;BME280;5525;42.648;23.368;2022-08-03T02:48:22;94638.03;;;16.61;100.00
10946;BME280;5525;42.648;23.368;2022-08-03T02:50:52;94626.38;;;16.41;100.00
10946;BME280;5525;42.648;23.368;2022-08-03T02:53:21;94669.75;;;16.69;100.00
10946;BME280;5525;42.648;23.368;2022-08-03T02:55:49;94665.75;;;16.63;100.00
10946;BME280;5525;42.648;23.368;2022-08-03T02:58:18;94673.00;;;16.55;100.00
10946;BME280;5525;42.648;23.368;2022-08-03T03:00:46;94664.19;;;16.62;100.00
10946;BME280;5525;42.648;23.368;2022-08-03T03:03:14;94634.13;;;16.58;100.00
10946;BME280;5525;42.648;23.368;2022-08-03T03:05:41;94668.53;;;16.66;100.00
10946;BME280;5525;42.648;23.368;2022-08-03T03:08:11;94655.38;;;16.49;100.00
10946;BME280;5525;42.648;23.368;2022-08-03T03:10:42;94670.28;;;16.55;100.00
10946;BME280;5525;42.648;23.368;2022-08-03T03:13:09;94681.38;;;16.66;100.00
10946;BME280;5525;42.648;23.368;2022-08-03T03:15:38;94646.31;;;16.45;100.00
10946;BME280;5525;42.648;23.368;2022-08-03T03:18:06;94679.34;;;16.82;100.00
10946;BME280;5525;42.648;23.368;2022-08-03T03:20:35;94659.81;;;16.80;100.00
10946;BME280;5525;42.648;23.368;2022-08-03T03:23:03;94692.00;;;17.16;100.00
10946;BME280;5525;42.648;23.368;2022-08-03T03:25:31;94691.16;;;17.12;100.00
10946;BME280;5525;42.648;23.368;2022-08-03T03:28:01;94703.66;;;16.91;100.00
10946;BME280;5525;42.648;23.368;2022-08-03T03:30:29;94704.09;;;16.73;100.00
10946;BME280;5525;42.648;23.368;2022-08-03T03:32:56;94678.75;;;16.50;100.00
10946;BME280;5525;42.648;23.368;2022-08-03T03:35:24;94704.44;;;16.49;100.00
10946;BME280;5525;42.648;23.368;2022-08-03T03:37:51;94707.50;;;16.48;100.00
10946;BME280;5525;42.648;23.368;2022-08-03T03:40:18;94707.16;;;16.49;100.00
10946;BME280;5525;42.648;23.368;2022-08-03T03:42:45;94706.28;;;16.45;100.00
10946;BME280;5525;42.648;23.368;2022-08-03T03:45:14;94695.13;;;16.35;100.00
10946;BME280;5525;42.648;23.368;2022-08-03T03:47:41;94702.31;;;16.43;100.00
10946;BME280;5525;42.648;23.368;2022-08-03T03:50:09;94663.75;;;16.22;100.00
10946;BME280;5525;42.648;23.368;2022-08-03T03:52:36;94696.81;;;16.58;100.00
10946;BME280;5525;42.648;23.368;2022-08-03T03:55:04;94685.47;;;16.56;100.00
10946;BME280;5525;42.648;23.368;2022-08-03T03:57:33;94687.56;;;16.63;100.00
10946;BME280;5525;42.648;23.368;2022-08-03T03:59:59;94720.75;;;16.88;100.00
10946;BME280;5525;42.648;23.368;2022-08-03T04:02:28;94712.25;;;16.93;100.00
10946;BME280;5525;42.648;23.368;2022-08-03T04:04:56;94690.66;;;16.84;100.00
10946;BME280;5525;42.648;23.368;2022-08-03T04:07:46;94707.91;;;17.11;100.00
10946;BME280;5525;42.648;23.368;2022-08-03T04:10:35;94703.22;;;17.82;100.00
10946;BME280;5525;42.648;23.368;2022-08-03T04:13:21;94698.44;;;19.34;100.00
10946;BME280;5525;42.648;23.368;2022-08-03T04:15:49;94702.88;;;20.72;86.33
10946;BME280;5525;42.648;23.368;2022-08-03T04:18:20;94695.94;;;21.13;78.75
10946;BME280;5525;42.648;23.368;2022-08-03T04:20:49;94705.44;;;21.54;77.78
10946;BME280;5525;42.648;23.368;2022-08-03T04:23:20;94700.22;;;22.44;69.95
10946;BME280;5525;42.648;23.368;2022-08-03T04:25:50;94709.19;;;23.52;63.47
10946;BME280;5525;42.648;23.368;2022-08-03T04:28:20;94685.72;;;23.81;58.42
10946;BME280;5525;42.648;23.368;2022-08-03T04:30:48;94708.59;;;23.78;59.88
10946;BME280;5525;42.648;23.368;2022-08-03T04:33:18;94691.72;;;24.16;56.87
10946;BME280;5525;42.648;23.368;2022-08-03T04:35:48;94679.75;;;25.27;52.43
10946;BME280;5525;42.648;23.368;2022-08-03T04:38:17;94719.31;;;25.77;49.92
10946;BME280;5525;42.648;23.368;2022-08-03T04:40:45;94707.78;;;25.56;50.34
10946;BME280;5525;42.648;23.368;2022-08-03T04:43:16;94709.47;;;26.45;47.99
10946;BME280;5525;42.648;23.368;2022-08-03T04:45:46;94698.25;;;26.95;46.33
10946;BME280;5525;42.648;23.368;2022-08-03T04:48:13;94731.88;;;27.52;44.78
10946;BME280;5525;42.648;23.368;2022-08-03T04:50:42;94740.19;;;27.88;43.74
10946;BME280;5525;42.648;23.368;2022-08-03T04:53:10;94735.66;;;29.31;40.32
10946;BME280;5525;42.648;23.368;2022-08-03T04:55:37;94743.53;;;30.37;37.83
10946;BME280;5525;42.648;23.368;2022-08-03T04:58:04;94748.09;;;30.90;35.84
10946;BME280;5525;42.648;23.368;2022-08-03T05:00:31;94719.69;;;31.26;34.60
10946;BME280;5525;42.648;23.368;2022-08-03T05:02:58;94723.88;;;30.87;34.85
10946;BME280;5525;42.648;23.368;2022-08-03T05:05:25;94760.56;;;31.84;33.61
10946;BME280;5525;42.648;23.368;2022-08-03T05:07:54;94768.59;;;32.52;32.71
10946;BME280;5525;42.648;23.368;2022-08-03T05:10:21;94763.72;;;33.02;30.95
10946;BME280;5525;42.648;23.368;2022-08-03T05:12:48;94767.00;;;33.00;30.90
10946;BME280;5525;42.648;23.368;2022-08-03T05:15:16;94726.75;;;32.31;31.39
10946;BME280;5525;42.648;23.368;2022-08-03T05:17:42;94759.69;;;33.30;30.11
10946;BME280;5525;42.648;23.368;2022-08-03T05:20:10;94744.94;;;33.47;29.58
10946;BME280;5525;42.648;23.368;2022-08-03T05:22:37;94780.06;;;33.12;30.29
10946;BME280;5525;42.648;23.368;2022-08-03T05:25:06;94776.81;;;33.50;30.28
10946;BME280;5525;42.648;23.368;2022-08-03T05:27:34;94754.34;;;33.86;29.27
10946;BME280;5525;42.648;23.368;2022-08-03T05:30:00;94761.44;;;34.05;28.83
10946;BME280;5525;42.648;23.368;2022-08-03T05:32:27;94791.25;;;34.68;28.35
10946;BME280;5525;42.648;23.368;2022-08-03T05:34:54;94762.56;;;34.96;27.82
10946;BME280;5525;42.648;23.368;2022-08-03T05:37:21;94749.88;;;34.77;27.89
10946;BME280;5525;42.648;23.368;2022-08-03T05:39:48;94730.47;;;33.49;29.55
10946;BME280;5525;42.648;23.368;2022-08-03T05:42:16;94790.25;;;35.50;27.96
10946;BME280;5525;42.648;23.368;2022-08-03T05:44:43;94789.31;;;36.12;27.42
10946;BME280;5525;42.648;23.368;2022-08-03T05:47:10;94792.72;;;35.87;27.49
10946;BME280;5525;42.648;23.368;2022-08-03T05:49:37;94795.03;;;33.45;30.19
10946;BME280;5525;42.648;23.368;2022-08-03T05:52:04;94793.06;;;35.27;28.34
10946;BME280;5525;42.648;23.368;2022-08-03T05:54:31;94789.59;;;37.32;25.62
10946;BME280;5525;42.648;23.368;2022-08-03T05:56:58;94778.59;;;36.59;26.05
10946;BME280;5525;42.648;23.368;2022-08-03T05:59:26;94787.94;;;34.46;29.20
10946;BME280;5525;42.648;23.368;2022-08-03T06:01:53;94792.09;;;35.53;27.24
10946;BME280;5525;42.648;23.368;2022-08-03T06:04:20;94795.97;;;35.32;28.00
10946;BME280;5525;42.648;23.368;2022-08-03T06:06:47;94801.94;;;36.80;26.08
10946;BME280;5525;42.648;23.368;2022-08-03T06:09:15;94819.03;;;37.11;25.13
10946;BME280;5525;42.648;23.368;2022-08-03T06:11:42;94778.53;;;35.28;26.93
10946;BME280;5525;42.648;23.368;2022-08-03T06:14:09;94798.84;;;34.76;28.15
10946;BME280;5525;42.648;23.368;2022-08-03T06:16:37;94800.75;;;36.37;26.28
10946;BME280;5525;42.648;23.368;2022-08-03T06:19:04;94815.31;;;37.60;24.83
10946;BME280;5525;42.648;23.368;2022-08-03T06:21:30;94799.81;;;37.95;24.03
10946;BME280;5525;42.648;23.368;2022-08-03T06:23:57;94810.81;;;37.93;24.03
10946;BME280;5525;42.648;23.368;2022-08-03T06:26:26;94777.34;;;39.00;22.60
10946;BME280;5525;42.648;23.368;2022-08-03T06:28:54;94781.63;;;38.95;23.09
10946;BME280;5525;42.648;23.368;2022-08-03T06:31:22;94806.06;;;40.43;21.23
10946;BME280;5525;42.648;23.368;2022-08-03T06:33:51;94806.03;;;41.04;20.73
10946;BME280;5525;42.648;23.368;2022-08-03T06:36:18;94812.41;;;41.37;20.57
10946;BME280;5525;42.648;23.368;2022-08-03T06:38:45;94769.53;;;40.56;20.97
10946;BME280;5525;42.648;23.368;2022-08-03T06:41:12;94805.75;;;37.72;24.22
10946;BME280;5525;42.648;23.368;2022-08-03T06:43:39;94779.75;;;38.44;23.00
10946;BME280;5525;42.648;23.368;2022-08-03T06:46:06;94806.78;;;38.00;24.02
10946;BME280;5525;42.648;23.368;2022-08-03T06:48:33;94802.81;;;38.43;23.21
10946;BME280;5525;42.648;23.368;2022-08-03T06:51:01;94796.94;;;37.24;24.37
10946;BME280;5525;42.648;23.368;2022-08-03T06:53:28;94796.22;;;37.69;24.08
10946;BME280;5525;42.648;23.368;2022-08-03T06:55:55;94803.72;;;38.54;23.36
10946;BME280;5525;42.648;23.368;2022-08-03T06:58:22;94784.47;;;37.31;24.47
10946;BME280;5525;42.648;23.368;2022-08-03T07:00:49;94800.63;;;37.76;24.31
10946;BME280;5525;42.648;23.368;2022-08-03T07:03:16;94792.22;;;39.00;23.51
10946;BME280;5525;42.648;23.368;2022-08-03T07:05:43;94786.13;;;39.71;22.42
10946;BME280;5525;42.648;23.368;2022-08-03T07:08:13;94784.31;;;39.04;22.60
10946;BME280;5525;42.648;23.368;2022-08-03T07:10:40;94797.69;;;38.41;23.39
10946;BME280;5525;42.648;23.368;2022-08-03T07:13:07;94796.81;;;40.32;21.83
10946;BME280;5525;42.648;23.368;2022-08-03T07:15:35;94774.34;;;41.79;19.94
10946;BME280;5525;42.648;23.368;2022-08-03T07:18:02;94781.97;;;42.71;19.40
10946;BME280;5525;42.648;23.368;2022-08-03T07:20:29;94806.16;;;43.98;18.03
10946;BME280;5525;42.648;23.368;2022-08-03T07:22:56;94805.09;;;43.58;18.05
10946;BME280;5525;42.648;23.368;2022-08-03T07:25:25;94798.22;;;42.00;19.47
10946;BME280;5525;42.648;23.368;2022-08-03T07:27:52;94806.63;;;43.35;18.67
10946;BME280;5525;42.648;23.368;2022-08-03T07:30:19;94788.25;;;39.93;21.04
10946;BME280;5525;42.648;23.368;2022-08-03T07:32:46;94796.75;;;41.83;20.52
10946;BME280;5525;42.648;23.368;2022-08-03T07:35:13;94816.00;;;43.30;18.57
10946;BME280;5525;42.648;23.368;2022-08-03T07:37:40;94812.03;;;43.39;18.37
10946;BME280;5525;42.648;23.368;2022-08-03T07:40:07;94784.50;;;43.71;18.07
10946;BME280;5525;42.648;23.368;2022-08-03T07:42:36;94816.34;;;42.32;18.95
10946;BME280;5525;42.648;23.368;2022-08-03T07:45:03;94818.16;;;42.65;18.86
10946;BME280;5525;42.648;23.368;2022-08-03T07:47:30;94785.06;;;43.88;17.79
10946;BME280;5525;42.648;23.368;2022-08-03T07:49:57;94784.09;;;42.24;19.14
10946;BME280;5525;42.648;23.368;2022-08-03T07:52:24;94788.44;;;44.87;16.96
10946;BME280;5525;42.648;23.368;2022-08-03T07:55:09;94806.56;;;42.92;18.33
10946;BME280;5525;42.648;23.368;2022-08-03T07:57:37;94817.22;;;45.02;17.01
10946;BME280;5525;42.648;23.368;2022-08-03T08:00:06;94784.56;;;45.16;16.72
10946;BME280;5525;42.648;23.368;2022-08-03T08:02:34;94785.06;;;46.39;15.33
10946;BME280;5525;42.648;23.368;2022-08-03T08:05:01;94817.22;;;46.06;15.44
10946;BME280;5525;42.648;23.368;2022-08-03T08:07:28;94807.94;;;45.14;16.34
10946;BME280;5525;42.648;23.368;2022-08-03T08:09:54;94809.03;;;46.36;15.26
10946;BME280;5525;42.648;23.368;2022-08-03T08:12:21;94835.06;;;47.48;14.52
10946;BME280;5525;42.648;23.368;2022-08-03T08:14:49;94827.13;;;47.34;14.58
10946;BME280;5525;42.648;23.368;2022-08-03T08:17:17;94787.34;;;46.20;14.85
10946;BME280;5525;42.648;23.368;2022-08-03T08:19:44;94818.81;;;48.07;13.81
10946;BME280;5525;42.648;23.368;2022-08-03T08:22:11;94799.81;;;47.89;14.18
10946;BME280;5525;42.648;23.368;2022-08-03T08:24:38;94825.50;;;47.46;14.54
10946;BME280;5525;42.648;23.368;2022-08-03T08:27:05;94781.50;;;46.59;14.70
10946;BME280;5525;42.648;23.368;2022-08-03T08:29:33;94793.97;;;45.89;14.66
10946;BME280;5525;42.648;23.368;2022-08-03T08:32:01;94813.84;;;45.29;15.63
10946;BME280;5525;42.648;23.368;2022-08-03T08:34:28;94818.03;;;46.94;14.16
10946;BME280;5525;42.648;23.368;2022-08-03T08:36:55;94818.38;;;46.91;14.19
10946;BME280;5525;42.648;23.368;2022-08-03T08:39:23;94793.78;;;45.87;14.78
10946;BME280;5525;42.648;23.368;2022-08-03T08:41:50;94810.56;;;46.37;14.45
10946;BME280;5525;42.648;23.368;2022-08-03T08:44:17;94812.13;;;45.91;15.19
10946;BME280;5525;42.648;23.368;2022-08-03T08:46:44;94804.47;;;47.64;13.82
10946;BME280;5525;42.648;23.368;2022-08-03T08:49:16;94811.50;;;48.34;13.28
10946;BME280;5525;42.648;23.368;2022-08-03T08:51:45;94797.63;;;47.18;14.22
10946;BME280;5525;42.648;23.368;2022-08-03T08:54:13;94785.66;;;44.68;15.96
10946;BME280;5525;42.648;23.368;2022-08-03T08:56:41;94803.31;;;46.90;14.42
10946;BME280;5525;42.648;23.368;2022-08-03T08:59:09;94787.44;;;44.39;15.78
10946;BME280;5525;42.648;23.368;2022-08-03T09:01:36;94791.91;;;43.79;16.31
10946;BME280;5525;42.648;23.368;2022-08-03T09:04:05;94796.34;;;45.51;15.15
10946;BME280;5525;42.648;23.368;2022-08-03T09:06:35;94802.03;;;45.77;15.07
10946;BME280;5525;42.648;23.368;2022-08-03T09:09:02;94795.31;;;47.17;14.08
10946;BME280;5525;42.648;23.368;2022-08-03T09:11:31;94762.88;;;48.14;13.32
10946;BME280;5525;42.648;23.368;2022-08-03T09:13:58;94791.47;;;47.63;13.49
10946;BME280;5525;42.648;23.368;2022-08-03T09:16:25;94791.19;;;45.50;14.93
10946;BME280;5525;42.648;23.368;2022-08-03T09:18:52;94787.50;;;45.75;14.61
10946;BME280;5525;42.648;23.368;2022-08-03T09:21:22;94763.94;;;45.62;14.89
10946;BME280;5525;42.648;23.368;2022-08-03T09:23:51;94792.56;;;47.04;13.70
10946;BME280;5525;42.648;23.368;2022-08-03T09:26:20;94747.44;;;47.10;13.56
10946;BME280;5525;42.648;23.368;2022-08-03T09:28:53;94799.75;;;47.18;13.45
10946;BME280;5525;42.648;23.368;2022-08-03T09:31:29;94766.66;;;47.09;13.52
10946;BME280;5525;42.648;23.368;2022-08-03T09:33:57;94783.69;;;48.95;12.37
10946;BME280;5525;42.648;23.368;2022-08-03T09:36:34;94771.19;;;46.23;14.16
10946;BME280;5525;42.648;23.368;2022-08-03T09:39:04;94768.72;;;43.51;16.29
10946;BME280;5525;42.648;23.368;2022-08-03T09:41:31;94769.22;;;40.93;17.98
10946;BME280;5525;42.648;23.368;2022-08-03T09:43:59;94778.41;;;43.61;16.35
10946;BME280;5525;42.648;23.368;2022-08-03T09:46:25;94783.91;;;45.88;14.71
10946;BME280;5525;42.648;23.368;2022-08-03T09:49:08;94772.06;;;42.13;17.29
10946;BME280;5525;42.648;23.368;2022-08-03T09:51:36;94777.00;;;43.49;16.06
10946;BME280;5525;42.648;23.368;2022-08-03T09:54:05;94762.59;;;44.53;15.09
10946;BME280;5525;42.648;23.368;2022-08-03T09:56:40;94776.59;;;46.67;13.88
10946;BME280;5525;42.648;23.368;2022-08-03T09:59:08;94770.72;;;46.32;13.95
10946;BME280;5525;42.648;23.368;2022-08-03T10:01:36;94750.28;;;44.13;15.38
10946;BME280;5525;42.648;23.368;2022-08-03T10:04:10;94733.63;;;43.00;16.47
10946;BME280;5525;42.648;23.368;2022-08-03T10:06:39;94764.63;;;46.89;13.49
10946;BME280;5525;42.648;23.368;2022-08-03T10:09:10;94729.59;;;47.96;13.12
10946;BME280;5525;42.648;23.368;2022-08-03T10:11:38;94748.81;;;48.38;12.83
10946;BME280;5525;42.648;23.368;2022-08-03T10:14:08;94740.44;;;49.53;12.20
10946;BME280;5525;42.648;23.368;2022-08-03T10:16:36;94720.28;;;47.24;13.18
10946;BME280;5525;42.648;23.368;2022-08-03T10:19:06;94734.56;;;42.25;17.11
10946;BME280;5525;42.648;23.368;2022-08-03T10:21:36;94738.13;;;39.99;18.88
10946;BME280;5525;42.648;23.368;2022-08-03T10:24:05;94723.03;;;38.79;20.30
10946;BME280;5525;42.648;23.368;2022-08-03T10:26:37;94732.25;;;41.83;17.29
10946;BME280;5525;42.648;23.368;2022-08-03T10:29:08;94704.31;;;44.22;15.21
10946;BME280;5525;42.648;23.368;2022-08-03T10:31:39;94738.06;;;44.63;15.35
10946;BME280;5525;42.648;23.368;2022-08-03T10:34:11;94726.88;;;43.03;16.09
10946;BME280;5525;42.648;23.368;2022-08-03T10:36:41;94747.69;;;42.34;17.07
10946;BME280;5525;42.648;23.368;2022-08-03T10:39:12;94704.19;;;42.74;16.30
10946;BME280;5525;42.648;23.368;2022-08-03T10:41:42;94711.47;;;42.40;16.83
10946;BME280;5525;42.648;23.368;2022-08-03T10:44:15;94717.22;;;43.92;16.04
10946;BME280;5525;42.648;23.368;2022-08-03T10:46:44;94736.41;;;44.99;15.23
10946;BME280;5525;42.648;23.368;2022-08-03T10:49:13;94734.91;;;45.97;14.16
10946;BME280;5525;42.648;23.368;2022-08-03T10:51:41;94673.81;;;43.86;15.92
10946;BME280;5525;42.648;23.368;2022-08-03T10:54:37;94724.47;;;44.56;15.70
10946;BME280;5525;42.648;23.368;2022-08-03T10:57:44;94731.34;;;44.47;14.79
10946;BME280;5525;42.648;23.368;2022-08-03T11:00:10;94724.78;;;45.36;14.55
10946;BME280;5525;42.648;23.368;2022-08-03T11:03:07;94724.44;;;42.35;16.42
10946;BME280;5525;42.648;23.368;2022-08-03T11:05:36;94726.09;;;44.51;15.29
10946;BME280;5525;42.648;23.368;2022-08-03T11:13:57;94711.28;;;45.50;14.86
10946;BME280;5525;42.648;23.368;2022-08-03T11:16:25;94692.66;;;42.37;16.77
10946;BME280;5525;42.648;23.368;2022-08-03T11:18:57;94704.06;;;37.30;21.28
10946;BME280;5525;42.648;23.368;2022-08-03T11:21:52;94690.06;;;36.06;22.86
10946;BME280;5525;42.648;23.368;2022-08-03T11:24:57;94684.94;;;39.06;20.38
10946;BME280;5525;42.648;23.368;2022-08-03T11:27:26;94689.44;;;38.87;20.32
10946;BME280;5525;42.648;23.368;2022-08-03T11:29:56;94650.66;;;38.03;20.67
10946;BME280;5525;42.648;23.368;2022-08-03T11:32:52;94676.84;;;36.12;23.54
10946;BME280;5525;42.648;23.368;2022-08-03T11:35:21;94682.69;;;35.35;23.58
10946;BME280;5525;42.648;23.368;2022-08-03T11:38:06;94684.28;;;37.24;22.13
10946;BME280;5525;42.648;23.368;2022-08-03T11:40:35;94652.16;;;37.98;20.98
10946;BME280;5525;42.648;23.368;2022-08-03T11:43:03;94664.13;;;36.16;23.19
10946;BME280;5525;42.648;23.368;2022-08-03T11:45:32;94662.41;;;37.96;21.07
10946;BME280;5525;42.648;23.368;2022-08-03T11:48:03;94653.50;;;39.79;19.45
10946;BME280;5525;42.648;23.368;2022-08-03T11:50:38;94668.88;;;39.61;19.98
10946;BME280;5525;42.648;23.368;2022-08-03T11:53:06;94658.25;;;37.60;21.61
10946;BME280;5525;42.648;23.368;2022-08-03T11:55:34;94664.28;;;36.62;22.80
10946;BME280;5525;42.648;23.368;2022-08-03T11:58:01;94662.72;;;34.10;25.52
10946;BME280;5525;42.648;23.368;2022-08-03T12:00:29;94660.34;;;32.44;27.72
10946;BME280;5525;42.648;23.368;2022-08-03T12:03:00;94604.03;;;31.97;28.14
10946;BME280;5525;42.648;23.368;2022-08-03T12:05:38;94655.75;;;32.01;28.94
10946;BME280;5525;42.648;23.368;2022-08-03T12:08:06;94648.53;;;31.52;29.74
10946;BME280;5525;42.648;23.368;2022-08-03T12:10:34;94645.22;;;31.35;29.98
10946;BME280;5525;42.648;23.368;2022-08-03T12:13:02;94628.19;;;31.21;30.18
10946;BME280;5525;42.648;23.368;2022-08-03T12:15:34;94634.69;;;31.17;30.23
10946;BME280;5525;42.648;23.368;2022-08-03T12:18:13;94635.16;;;30.94;30.28
10946;BME280;5525;42.648;23.368;2022-08-03T12:20:41;94641.09;;;30.75;31.10
10946;BME280;5525;42.648;23.368;2022-08-03T12:23:09;94639.56;;;30.27;31.09
10946;BME280;5525;42.648;23.368;2022-08-03T12:25:37;94630.25;;;29.96;31.59
10946;BME280;5525;42.648;23.368;2022-08-03T12:28:13;94621.50;;;30.19;31.41
10946;BME280;5525;42.648;23.368;2022-08-03T12:30:50;94617.91;;;30.65;30.95
10946;BME280;5525;42.648;23.368;2022-08-03T12:33:22;94641.47;;;30.86;30.60
10946;BME280;5525;42.648;23.368;2022-08-03T12:36:00;94638.03;;;30.82;30.50
10946;BME280;5525;42.648;23.368;2022-08-03T12:38:29;94622.38;;;30.63;30.92
10946;BME280;5525;42.648;23.368;2022-08-03T12:40:57;94600.63;;;30.36;30.87
10946;BME280;5525;42.648;23.368;2022-08-03T12:43:25;94613.59;;;30.30;31.52
10946;BME280;5525;42.648;23.368;2022-08-03T12:46:06;94627.38;;;30.89;30.80
10946;BME280;5525;42.648;23.368;2022-08-03T12:48:34;94594.66;;;30.81;30.48
10946;BME280;5525;42.648;23.368;2022-08-03T12:51:08;94589.59;;;30.88;31.22
10946;BME280;5525;42.648;23.368;2022-08-03T12:53:35;94619.41;;;30.79;31.41
10946;BME280;5525;42.648;23.368;2022-08-03T12:56:03;94627.22;;;31.14;29.89
10946;BME280;5525;42.648;23.368;2022-08-03T12:58:31;94622.47;;;31.46;29.35
10946;BME280;5525;42.648;23.368;2022-08-03T13:00:58;94596.13;;;31.25;29.63
10946;BME280;5525;42.648;23.368;2022-08-03T13:03:26;94617.91;;;31.79;29.27
10946;BME280;5525;42.648;23.368;2022-08-03T13:05:54;94576.72;;;31.92;30.03
10946;BME280;5525;42.648;23.368;2022-08-03T13:08:23;94614.97;;;31.73;29.89
10946;BME280;5525;42.648;23.368;2022-08-03T13:10:51;94604.31;;;31.90;29.64
10946;BME280;5525;42.648;23.368;2022-08-03T13:13:18;94603.06;;;31.91;29.75
10946;BME280;5525;42.648;23.368;2022-08-03T13:16:03;94610.81;;;31.17;30.56